createdAt,value
2019-04-20T00:01:36.913Z,53.94
2019-04-20T00:04:09.924Z,53.76
2019-04-20T00:06:46.041Z,53.37
2019-04-20T00:09:18.284Z,53.11
2019-04-20T00:11:53.577Z,52.88
2019-04-20T00:14:19.250Z,52.62
2019-04-20T00:16:44.269Z,52.53
2019-04-20T00:19:21.697Z,52.56
2019-04-20T00:21:56.153Z,52.42
2019-04-20T00:24:27.283Z,52.39
2019-04-20T00:27:13.617Z,52.47
2019-04-20T00:29:45.235Z,52.55
2019-04-20T00:32:10.554Z,52.57
2019-04-20T00:34:33.949Z,52.69
2019-04-20T00:37:00.306Z,52.87
2019-04-20T00:39:30.026Z,53.13
2019-04-20T00:42:04.428Z,53.55
2019-04-20T00:44:35.827Z,53.62
2019-04-20T00:47:12.013Z,53.63
2019-04-20T00:49:48.280Z,53.73
2019-04-20T00:52:27.395Z,53.76
2019-04-20T00:54:36.947Z,53.72
2019-04-20T00:57:20.341Z,54.14
2019-04-20T01:00:03.330Z,54.90
2019-04-20T01:02:22.126Z,55.43
2019-04-20T01:04:58.028Z,55.47
2019-04-20T01:07:27.412Z,55.33
2019-04-20T01:10:02.911Z,55.10
2019-04-20T01:12:35.066Z,55.12
2019-04-20T01:15:09.918Z,55.41
2019-04-20T01:17:37.765Z,55.44
2019-04-20T01:20:09.368Z,55.62
2019-04-20T01:22:44.565Z,55.77
2019-04-20T01:25:20.918Z,55.57
2019-04-20T01:28:02.275Z,55.42
2019-04-20T01:30:25.177Z,55.19
2019-04-20T01:33:02.483Z,55.14
2019-04-20T01:35:35.593Z,55.13
2019-04-20T01:38:08.530Z,55.19
2019-04-20T01:40:21.584Z,55.28
2019-04-20T01:42:51.314Z,55.42
2019-04-20T01:45:27.486Z,55.54
2019-04-20T01:47:54.999Z,55.63
2019-04-20T01:50:27.661Z,55.88
2019-04-20T01:53:08.282Z,56.04
2019-04-20T01:55:56.105Z,56.12
2019-04-20T01:58:30.280Z,56.29
2019-04-20T02:00:44.013Z,56.49
2019-04-20T02:03:38.475Z,56.73
2019-04-20T02:06:11.673Z,56.93
2019-04-20T02:08:39.924Z,57.27
2019-04-20T02:11:17.806Z,57.63
2019-04-20T02:13:48.085Z,57.79
2019-04-20T02:16:22.922Z,57.93
2019-04-20T02:19:02.088Z,58.09
2019-04-20T02:21:33.530Z,58.23
2019-04-20T02:23:53.121Z,58.40
2019-04-20T02:26:17.950Z,58.48
2019-04-20T02:29:14.512Z,58.40
2019-04-20T02:34:39.122Z,58.52
2019-04-20T02:37:15.086Z,58.56
2019-04-20T02:42:29.334Z,58.63
2019-04-20T02:45:01.336Z,58.80
2019-04-20T02:47:30.615Z,58.83
2019-04-20T02:50:07.445Z,58.79
2019-04-20T02:52:34.013Z,58.75
2019-04-20T02:55:04.421Z,58.75
2019-04-20T02:57:32.705Z,58.78
2019-04-20T03:02:18.533Z,59.11
2019-04-20T03:04:40.246Z,59.17
2019-04-20T03:07:15.257Z,59.20
2019-04-20T03:09:55.088Z,59.26
2019-04-20T03:12:29.127Z,59.31
2019-04-20T03:14:54.071Z,59.41
2019-04-20T03:17:32.629Z,59.53
2019-04-20T03:19:54.989Z,59.42
2019-04-20T03:22:47.907Z,59.81
2019-04-20T03:25:06.324Z,60.42
2019-04-20T03:27:34.406Z,60.83
2019-04-20T03:30:39.515Z,61.16
2019-04-20T03:33:04.397Z,61.29
2019-04-20T03:35:22.355Z,61.20
2019-04-20T03:37:56.306Z,61.35
2019-04-20T03:40:19.333Z,61.50
2019-04-20T03:42:34.890Z,61.70
2019-04-20T03:45:12.465Z,61.89
2019-04-20T03:47:49.774Z,61.98
2019-04-20T03:50:37.581Z,62.00
2019-04-20T03:53:08.395Z,61.96
2019-04-20T03:55:41.895Z,61.92
2019-04-20T03:58:19.732Z,62.22
2019-04-20T04:00:55.690Z,62.48
2019-04-20T04:03:41.111Z,62.58
2019-04-20T04:06:07.684Z,62.44
2019-04-20T04:08:34.404Z,62.51
2019-04-20T04:11:18.919Z,62.87
2019-04-20T04:13:29.199Z,63.24
2019-04-20T04:16:03.264Z,63.50
2019-04-20T04:18:37.280Z,63.53
2019-04-20T04:21:07.954Z,63.45
2019-04-20T04:23:49.073Z,63.51
2019-04-20T04:26:21.994Z,63.68
2019-04-20T04:28:48.343Z,63.84
2019-04-20T04:31:25.972Z,64.05
2019-04-20T04:33:58.076Z,64.25
2019-04-20T04:36:28.992Z,64.35
2019-04-20T04:39:03.639Z,64.44
2019-04-20T04:41:31.093Z,64.56
2019-04-20T04:44:06.065Z,64.57
2019-04-20T04:46:16.532Z,64.69
2019-04-20T04:48:49.188Z,64.75
2019-04-20T04:51:22.966Z,64.73
2019-04-20T04:53:59.361Z,64.79
2019-04-20T04:56:23.412Z,64.95
2019-04-20T04:58:51.809Z,64.82
2019-04-20T05:01:25.940Z,64.62
2019-04-20T05:04:25.131Z,64.67
2019-04-20T05:06:41.428Z,64.88
2019-04-20T05:09:00.855Z,64.87
2019-04-20T05:11:28.040Z,65.09
2019-04-20T05:14:03.364Z,65.20
2019-04-20T05:16:46.032Z,64.85
2019-04-20T05:19:26.200Z,64.62
2019-04-20T05:21:58.677Z,64.48
2019-04-20T05:24:31.731Z,64.08
2019-04-20T05:27:13.608Z,63.47
2019-04-20T05:29:25.397Z,62.11
2019-04-20T05:31:59.960Z,61.68
2019-04-20T05:34:45.125Z,61.49
2019-04-20T05:37:23.706Z,61.43
2019-04-20T05:39:50.965Z,61.18
2019-04-20T05:42:23.200Z,61.01
2019-04-20T05:44:54.149Z,60.79
2019-04-20T05:47:21.677Z,60.50
2019-04-20T05:49:50.005Z,60.42
2019-04-20T05:52:36.116Z,60.18
2019-04-20T05:54:56.267Z,60.01
2019-04-20T05:57:30.246Z,59.93
2019-04-20T06:00:09.611Z,59.52
2019-04-20T06:02:32.084Z,59.43
2019-04-20T06:05:04.057Z,59.14
2019-04-20T06:07:35.844Z,58.94
2019-04-20T06:10:06.229Z,58.37
2019-04-20T06:12:35.806Z,57.58
2019-04-20T06:15:05.575Z,57.22
2019-04-20T06:17:59.634Z,56.58
2019-04-20T06:20:37.949Z,55.92
2019-04-20T06:23:11.908Z,55.43
2019-04-20T06:26:01.425Z,55.20
2019-04-20T06:28:12.771Z,54.61
2019-04-20T06:30:35.373Z,53.98
2019-04-20T06:39:16.094Z,52.64
2019-04-20T06:42:05.752Z,51.74
2019-04-20T06:44:16.503Z,51.15
2019-04-20T06:46:57.322Z,50.94
2019-04-20T06:49:25.144Z,50.88
2019-04-20T06:51:52.944Z,50.96
2019-04-20T06:54:19.886Z,50.77
2019-04-20T06:57:00.239Z,50.62
2019-04-20T06:59:42.230Z,50.14
2019-04-20T07:02:11.187Z,49.68
2019-04-20T07:04:41.993Z,49.68
2019-04-20T07:07:10.187Z,49.19
2019-04-20T07:09:46.455Z,49.00
2019-04-20T07:12:06.734Z,49.23
2019-04-20T07:14:35.935Z,49.52
2019-04-20T07:17:20.615Z,49.55
2019-04-20T07:19:44.471Z,49.28
2019-04-20T07:24:59.270Z,48.56
2019-04-20T07:27:25.907Z,48.22
2019-04-20T07:30:00.582Z,48.22
2019-04-20T07:32:17.809Z,47.84
2019-04-20T07:34:55.779Z,46.94
2019-04-20T07:38:03.190Z,46.24
2019-04-20T07:40:11.719Z,45.79
2019-04-20T07:42:43.798Z,44.85
2019-04-20T07:45:16.698Z,44.49
2019-04-20T07:47:45.917Z,44.39
2019-04-20T07:50:09.059Z,43.72
2019-04-20T07:52:40.842Z,43.29
2019-04-20T07:55:33.283Z,43.03
2019-04-20T07:57:44.121Z,42.89
2019-04-20T08:00:21.386Z,42.11
2019-04-20T08:03:12.175Z,41.45
2019-04-20T08:05:36.354Z,41.18
2019-04-20T08:08:17.138Z,40.77
2019-04-20T08:10:42.754Z,40.40
2019-04-20T08:13:30.182Z,40.80
2019-04-20T08:15:49.178Z,40.53
2019-04-20T08:20:52.839Z,40.80
2019-04-20T08:23:23.139Z,40.39
2019-04-20T08:25:47.399Z,39.91
2019-04-20T08:28:22.695Z,39.10
2019-04-20T08:31:08.877Z,39.16
2019-04-20T08:33:55.282Z,38.59
2019-04-20T08:36:22.787Z,38.33
2019-04-20T08:41:20.556Z,38.91
2019-04-20T08:46:26.555Z,36.69
2019-04-20T08:48:58.144Z,35.75
2019-04-20T08:51:34.689Z,36.18
2019-04-20T08:53:58.926Z,35.94
2019-04-20T08:56:25.919Z,36.37
2019-04-20T08:58:43.529Z,36.20
2019-04-20T09:01:20.040Z,36.42
2019-04-20T09:03:56.446Z,36.00
2019-04-20T09:06:33.638Z,35.19
2019-04-20T09:08:59.649Z,35.23
2019-04-20T09:11:45.179Z,35.22
2019-04-20T09:13:55.755Z,34.80
2019-04-20T09:16:26.971Z,35.24
2019-04-20T09:18:59.996Z,35.64
2019-04-20T09:21:35.551Z,35.69
2019-04-20T09:24:22.846Z,34.53
2019-04-20T09:26:42.864Z,34.76
2019-04-20T09:29:13.721Z,34.72
2019-04-20T09:31:43.288Z,34.72
2019-04-20T09:34:22.013Z,35.23
2019-04-20T09:36:51.331Z,34.72
2019-04-20T09:39:25.643Z,35.80
2019-04-20T09:42:05.808Z,36.21
2019-04-20T09:44:40.900Z,34.88
2019-04-20T09:47:10.075Z,35.33
2019-04-20T09:49:48.108Z,34.37
2019-04-20T09:52:21.245Z,34.70
2019-04-20T09:54:59.276Z,33.79
2019-04-20T09:57:33.631Z,34.64
2019-04-20T10:00:10.224Z,34.28
2019-04-20T10:02:24.863Z,34.18
2019-04-20T10:04:51.468Z,34.18
2019-04-20T10:07:25.792Z,34.00
2019-04-20T10:09:53.888Z,32.64
2019-04-20T10:12:24.141Z,32.56
2019-04-20T10:14:57.591Z,32.95
2019-04-20T10:17:29.656Z,33.42
2019-04-20T10:19:57.731Z,33.41
2019-04-20T10:22:28.716Z,32.34
2019-04-20T10:24:58.322Z,31.93
2019-04-20T10:27:28.459Z,31.70
2019-04-20T10:30:01.080Z,31.62
2019-04-20T10:32:38.806Z,31.79
2019-04-20T10:35:02.491Z,32.27
2019-04-20T10:37:33.611Z,32.36
2019-04-20T10:40:04.808Z,31.21
2019-04-20T10:42:36.278Z,31.51
2019-04-20T10:45:08.744Z,32.55
2019-04-20T10:47:38.978Z,32.18
2019-04-20T10:50:11.207Z,32.23
2019-04-20T10:52:41.667Z,33.01
2019-04-20T10:55:12.485Z,33.38
2019-04-20T10:57:43.786Z,32.96
2019-04-20T11:00:15.478Z,32.85
2019-04-20T11:02:47.418Z,32.63
2019-04-20T11:05:16.971Z,33.34
2019-04-20T11:07:46.775Z,33.49
2019-04-20T11:10:25.002Z,33.00
2019-04-20T11:12:50.527Z,32.70
2019-04-20T11:15:21.056Z,32.14
2019-04-20T11:17:51.389Z,32.25
2019-04-20T11:20:21.525Z,31.81
2019-04-20T11:22:52.571Z,31.65
2019-04-20T11:25:24.295Z,31.18
2019-04-20T11:27:54.450Z,31.06
2019-04-20T11:30:25.775Z,30.74
2019-04-20T11:32:56.036Z,31.15
2019-04-20T11:35:32.660Z,30.67
2019-04-20T11:37:58.305Z,30.21
2019-04-20T11:40:28.850Z,30.79
2019-04-20T11:42:59.581Z,30.98
2019-04-20T11:45:30.817Z,31.34
2019-04-20T11:48:01.187Z,31.16
2019-04-20T11:50:31.604Z,30.04
2019-04-20T11:53:01.552Z,30.32
2019-04-20T11:55:31.775Z,29.15
2019-04-20T11:58:01.945Z,29.26
2019-04-20T12:00:54.963Z,29.17
2019-04-20T12:03:25.996Z,28.49
2019-04-20T12:05:53.202Z,28.49
2019-04-20T12:08:20.710Z,28.27
2019-04-20T12:10:56.486Z,28.71
2019-04-20T12:13:24.690Z,28.01
2019-04-20T12:15:55.994Z,28.64
2019-04-20T12:18:25.636Z,27.33
2019-04-20T12:20:56.753Z,27.20
2019-04-20T12:23:28.455Z,27.53
2019-04-20T12:25:59.796Z,27.79
2019-04-20T12:28:29.729Z,27.28
2019-04-20T12:31:04.141Z,27.00
2019-04-20T12:33:30.786Z,26.36
2019-04-20T12:36:02.437Z,25.11
2019-04-20T12:38:32.880Z,25.53
2019-04-20T12:41:04.834Z,26.13
2019-04-20T12:43:34.192Z,26.18
2019-04-20T12:46:03.803Z,26.41
2019-04-20T12:48:33.975Z,26.36
2019-04-20T12:51:03.827Z,26.32
2019-04-20T12:53:34.831Z,26.79
2019-04-20T12:56:06.507Z,26.04
2019-04-20T12:58:36.656Z,26.33
2019-04-20T13:01:07.004Z,25.75
2019-04-20T13:03:37.348Z,25.29
2019-04-20T13:06:07.995Z,25.74
2019-04-20T13:08:43.421Z,25.88
2019-04-20T13:11:28.738Z,25.74
2019-04-20T13:14:30.449Z,25.78
2019-04-20T13:17:02.006Z,25.80
2019-04-20T13:19:33.193Z,26.05
2019-04-20T13:22:03.499Z,25.94
2019-04-20T13:24:33.123Z,25.95
2019-04-20T13:27:02.956Z,25.54
2019-04-20T13:29:33.181Z,25.16
2019-04-20T13:32:02.884Z,25.84
2019-04-20T13:34:33.750Z,25.94
2019-04-20T13:37:04.344Z,25.69
2019-04-20T13:39:35.116Z,25.66
2019-04-20T13:42:12.254Z,26.19
2019-04-20T13:44:36.930Z,26.46
2019-04-20T13:47:07.351Z,26.19
2019-04-20T13:49:37.054Z,24.99
2019-04-20T13:52:08.668Z,25.63
2019-04-20T13:54:40.047Z,26.15
2019-04-20T13:57:11.970Z,26.35
2019-04-20T13:59:46.185Z,25.96
2019-04-20T14:02:26.723Z,25.59
2019-04-20T14:04:59.022Z,25.64
2019-04-20T14:07:31.406Z,25.89
2019-04-20T14:10:01.895Z,26.15
2019-04-20T14:12:37.084Z,25.72
2019-04-20T14:15:06.884Z,26.02
2019-04-20T14:17:37.179Z,25.44
2019-04-20T14:20:13.389Z,25.26
2019-04-20T14:22:41.015Z,25.52
2019-04-20T14:25:11.195Z,25.95
2019-04-20T14:27:42.588Z,26.50
2019-04-20T14:30:13.451Z,25.92
2019-04-20T14:32:44.949Z,26.08
2019-04-20T14:35:16.667Z,26.37
2019-04-20T14:37:47.773Z,26.18
2019-04-20T14:40:18.677Z,26.55
2019-04-20T14:42:51.696Z,26.70
2019-04-20T14:45:20.757Z,25.92
2019-04-20T14:47:51.702Z,25.66
2019-04-20T14:50:23.343Z,25.93
2019-04-20T14:52:53.473Z,25.63
2019-04-20T14:55:24.207Z,25.36
2019-04-20T14:57:55.316Z,25.48
2019-04-20T15:00:53.301Z,25.10
2019-04-20T15:03:37.351Z,25.24
2019-04-20T15:06:09.974Z,25.76
2019-04-20T15:08:40.749Z,25.47
2019-04-20T15:11:10.600Z,26.24
2019-04-20T15:13:40.658Z,26.10
2019-04-20T15:16:10.849Z,25.95
2019-04-20T15:18:56.293Z,25.83
2019-04-20T15:21:29.160Z,25.90
2019-04-20T15:23:59.496Z,25.61
2019-04-20T15:26:30.622Z,25.96
2019-04-20T15:29:02.163Z,25.92
2019-04-20T15:31:32.736Z,25.67
2019-04-20T15:34:03.298Z,25.86
2019-04-20T15:36:36.132Z,26.08
2019-04-20T15:39:09.296Z,26.18
2019-04-20T15:41:39.239Z,26.26
2019-04-20T15:44:09.231Z,25.96
2019-04-20T15:46:40.038Z,26.07
2019-04-20T15:49:10.316Z,26.13
2019-04-20T15:51:40.012Z,25.58
2019-04-20T15:54:11.410Z,25.46
2019-04-20T15:56:48.911Z,25.97
2019-04-20T15:59:12.890Z,25.78
2019-04-20T16:01:49.617Z,25.59
2019-04-20T16:04:40.783Z,25.95
2019-04-20T16:07:10.885Z,26.21
2019-04-20T16:09:41.818Z,26.01
2019-04-20T16:12:13.028Z,26.46
2019-04-20T16:14:43.862Z,26.33
2019-04-20T16:17:15.071Z,26.34
2019-04-20T16:19:54.246Z,26.43
2019-04-20T16:22:19.807Z,25.88
2019-04-20T16:24:59.661Z,26.22
2019-04-20T16:27:29.740Z,26.62
2019-04-20T16:29:59.930Z,25.95
2019-04-20T16:32:30.543Z,26.32
2019-04-20T16:35:02.748Z,26.23
2019-04-20T16:37:32.747Z,25.72
2019-04-20T16:40:04.822Z,25.93
2019-04-20T16:42:38.474Z,26.12
2019-04-20T16:45:09.454Z,26.07
2019-04-20T16:47:39.960Z,26.03
2019-04-20T16:50:11.092Z,25.92
2019-04-20T16:52:41.324Z,25.96
2019-04-20T16:55:14.626Z,26.21
2019-04-20T16:57:47.833Z,26.29
2019-04-20T17:00:19.815Z,28.35
2019-04-20T17:02:50.174Z,29.17
2019-04-20T17:05:20.990Z,29.38
2019-04-20T17:07:53.138Z,29.61
2019-04-20T17:10:23.977Z,29.75
2019-04-20T17:12:53.794Z,29.97
2019-04-20T17:15:23.892Z,30.32
2019-04-20T17:17:55.358Z,30.54
2019-04-20T17:20:25.751Z,30.42
2019-04-20T17:22:56.328Z,30.60
2019-04-20T17:25:26.031Z,30.86
2019-04-20T17:28:13.382Z,30.79
2019-04-20T17:30:49.191Z,30.71
2019-04-20T17:33:25.758Z,30.82
2019-04-20T17:36:03.246Z,30.66
2019-04-20T17:38:24.871Z,31.07
2019-04-20T17:41:08.648Z,31.19
2019-04-20T17:43:33.274Z,31.15
2019-04-20T17:46:06.920Z,31.47
2019-04-20T17:48:42.190Z,31.85
2019-04-20T17:51:23.966Z,31.76
2019-04-20T17:53:52.799Z,31.81
2019-04-20T17:56:18.115Z,32.01
2019-04-20T17:58:48.020Z,32.10
2019-04-20T18:01:29.443Z,31.88
2019-04-20T18:04:19.730Z,31.82
2019-04-20T18:06:39.447Z,32.03
2019-04-20T18:09:06.629Z,32.04
2019-04-20T18:11:31.270Z,31.89
2019-04-20T18:14:06.527Z,31.98
2019-04-20T18:16:56.804Z,31.88
2019-04-20T18:19:21.994Z,31.94
2019-04-20T18:21:53.734Z,31.94
2019-04-20T18:24:50.961Z,31.95
2019-04-20T18:27:18.765Z,32.05
2019-04-20T18:29:45.562Z,31.94
2019-04-20T18:31:59.855Z,32.26
2019-04-20T18:34:31.932Z,32.15
2019-04-20T18:37:07.481Z,32.39
2019-04-20T18:39:42.083Z,32.57
2019-04-20T18:42:13.021Z,32.48
2019-04-20T18:44:57.132Z,32.69
2019-04-20T18:47:30.142Z,32.72
2019-04-20T18:49:50.498Z,32.97
2019-04-20T18:52:11.571Z,32.92
2019-04-20T18:54:44.915Z,33.10
2019-04-20T18:57:18.186Z,33.11
2019-04-20T18:59:50.471Z,33.10
2019-04-20T19:02:22.769Z,33.08
2019-04-20T19:04:48.232Z,33.23
2019-04-20T19:07:19.638Z,33.32
2019-04-20T19:09:53.234Z,33.38
2019-04-20T19:12:34.112Z,33.39
2019-04-20T19:15:04.995Z,33.45
2019-04-20T19:17:51.391Z,33.57
2019-04-20T19:20:23.425Z,33.48
2019-04-20T19:22:52.719Z,33.75
2019-04-20T19:25:27.144Z,33.81
2019-04-20T19:27:56.560Z,33.98
2019-04-20T19:30:35.204Z,33.97
2019-04-20T19:33:14.481Z,34.10
2019-04-20T19:35:40.882Z,34.27
2019-04-20T19:38:09.856Z,34.32
2019-04-20T19:40:45.396Z,34.48
2019-04-20T19:43:15.608Z,34.55
2019-04-20T19:45:56.592Z,34.58
2019-04-20T19:48:22.101Z,34.73
2019-04-20T19:51:00.782Z,34.77
2019-04-20T19:53:32.449Z,34.98
2019-04-20T19:55:54.861Z,35.08
2019-04-20T19:58:26.520Z,35.27
2019-04-20T20:00:53.649Z,35.29
2019-04-20T20:03:23.751Z,35.36
2019-04-20T20:05:54.806Z,35.39
2019-04-20T20:08:29.558Z,35.52
2019-04-20T20:11:00.885Z,35.55
2019-04-20T20:13:36.120Z,35.74
2019-04-20T20:16:06.029Z,35.73
2019-04-20T20:18:46.720Z,35.71
2019-04-20T20:21:16.908Z,35.91
2019-04-20T20:23:34.178Z,36.04
2019-04-20T20:26:07.197Z,36.24
2019-04-20T20:28:43.531Z,36.47
2019-04-20T20:31:17.042Z,36.65
2019-04-20T20:33:54.645Z,36.75
2019-04-20T20:36:15.723Z,36.82
2019-04-20T20:38:45.754Z,36.91
2019-04-20T20:41:20.607Z,37.08
2019-04-20T20:43:56.438Z,37.28
2019-04-20T20:46:23.979Z,37.55
2019-04-20T20:49:17.706Z,37.86
2019-04-20T20:51:44.291Z,38.07
2019-04-20T20:53:57.690Z,38.53
2019-04-20T20:56:25.059Z,38.79
2019-04-20T20:59:02.984Z,39.05
2019-04-20T21:01:26.473Z,39.19
2019-04-20T21:03:56.599Z,39.36
2019-04-20T21:06:26.646Z,39.47
2019-04-20T21:08:59.981Z,39.55
2019-04-20T21:11:31.432Z,39.72
2019-04-20T21:13:59.397Z,39.93
2019-04-20T21:16:31.921Z,40.04
2019-04-20T21:19:17.233Z,40.09
2019-04-20T21:21:42.250Z,40.08
2019-04-20T21:24:11.117Z,40.17
2019-04-20T21:26:40.939Z,40.28
2019-04-20T21:29:08.183Z,40.40
2019-04-20T21:31:38.634Z,40.61
2019-04-20T21:34:13.128Z,40.85
2019-04-20T21:36:40.887Z,41.04
2019-04-20T21:39:19.092Z,41.19
2019-04-20T21:41:50.923Z,41.54
2019-04-20T21:44:24.147Z,42.69
2019-04-20T21:46:49.621Z,43.97
2019-04-20T21:49:32.146Z,45.13
2019-04-20T21:51:55.418Z,45.88
2019-04-20T21:54:20.168Z,46.28
2019-04-20T21:56:56.319Z,46.56
2019-04-20T21:59:28.098Z,46.51
2019-04-20T22:01:58.515Z,46.30
2019-04-20T22:04:25.146Z,46.35
2019-04-20T22:06:56.217Z,46.69
2019-04-20T22:09:34.792Z,47.70
2019-04-20T22:11:58.109Z,48.13
2019-04-20T22:14:32.218Z,48.27
2019-04-20T22:17:01.841Z,48.80
2019-04-20T22:19:41.872Z,49.17
2019-04-20T22:22:12.914Z,49.43
2019-04-20T22:24:50.578Z,49.78
2019-04-20T22:27:14.467Z,49.99
2019-04-20T22:29:36.697Z,49.34
2019-04-20T22:32:12.731Z,49.14
2019-04-20T22:34:37.774Z,49.50
2019-04-20T22:37:09.726Z,50.17
2019-04-20T22:39:45.689Z,50.73
2019-04-20T22:42:14.371Z,51.17
2019-04-20T22:44:43.251Z,51.48
2019-04-20T22:47:20.799Z,51.57
2019-04-20T22:50:00.001Z,51.76
2019-04-20T22:52:30.454Z,51.81
2019-04-20T22:55:10.090Z,51.87
2019-04-20T22:57:36.948Z,51.80
2019-04-20T22:59:59.388Z,51.84
2019-04-20T23:02:23.642Z,51.63
2019-04-20T23:04:53.232Z,52.12
2019-04-20T23:07:23.110Z,52.52
2019-04-20T23:09:56.471Z,52.44
2019-04-20T23:12:26.899Z,52.85
2019-04-20T23:14:56.489Z,53.08
2019-04-20T23:17:33.571Z,52.88
2019-04-20T23:20:01.434Z,52.51
2019-04-20T23:22:36.842Z,52.05
2019-04-20T23:25:00.075Z,52.04
2019-04-20T23:27:32.105Z,52.54
2019-04-20T23:30:05.886Z,52.74
2019-04-20T23:32:33.747Z,52.78
2019-04-20T23:35:09.744Z,53.31
2019-04-20T23:37:38.548Z,53.82
2019-04-20T23:40:10.968Z,53.98
2019-04-20T23:42:51.611Z,54.19
2019-04-20T23:45:37.222Z,54.21
2019-04-20T23:48:05.323Z,53.94
2019-04-20T23:50:50.209Z,53.76
2019-04-20T23:53:27.365Z,54.04
2019-04-20T23:55:39.359Z,54.38
2019-04-20T23:58:12.238Z,55.10
